Antonia B — V2DF9 — position and weather

sailwx.info

Track history (hours):
 
Tides and Currents Weather Stations Pressure Air Temp Water Temp Dewpoint Dewpoint Depression Visibility Wind Speed Wind Dir Waves Ship Positions

Antonia B

Last reported at 2018-Apr-24 12:57 UTC. Time now 2018-Apr-24 16:42 UTC.
Position N 54°51' E 015°12'.

Length 97 m; draft 6.9 m.

Type: Cargo ship. MMSI: 305201000.

Date/timePositionNaut miles runAvg speedWind from/ knotsBaromVisibWave heightAir tempDewpointWater temp
2018-Apr-24 12:57N 54°51' E 015°12'512.2
2018-Apr-24 12:30N 54°52' E 015°02'612.1
2018-Apr-24 12:01N 54°53' E 014°52'611.9
2018-Apr-24 11:30N 54°53' E 014°41'611.8
2018-Apr-24 11:00N 54°54' E 014°31'612.0
2018-Apr-24 10:30N 54°55' E 014°21'4611.9
2018-Apr-24 06:41N 55°10' E 013°06'212.1
2018-Apr-24 06:30N 55°11' E 013°03'611.8
2018-Apr-24 06:00N 55°14' E 012°54'611.9
2018-Apr-24 05:30N 55°17' E 012°44'5 9.6
2018-Apr-24 05:00N 55°20' E 012°39'611.8
2018-Apr-24 04:30N 55°26' E 012°40'611.8
2018-Apr-24 04:00N 55°32' E 012°42'611.8
2018-Apr-24 03:30N 55°38' E 012°42'612.2
2018-Apr-24 03:00N 55°44' E 012°41'611.5
2018-Apr-24 02:30N 55°50' E 012°42'612.1
2018-Apr-24 02:00N 55°55' E 012°38'611.7
2018-Apr-24 01:30N 56°01' E 012°38'611.7
2018-Apr-24 01:00N 56°06' E 012°32'713.4
2018-Apr-24 00:28N 56°10' E 012°22'6611.5
2018-Apr-23 18:45N 57°11' E 011°35'311.1
2018-Apr-23 18:30N 57°13' E 011°34'611.3
2018-Apr-23 18:00N 57°19' E 011°30'611.7
2018-Apr-23 17:30N 57°24' E 011°26'611.3
2018-Apr-23 17:00N 57°29' E 011°21'611.6
2018-Apr-23 16:30N 57°33' E 011°13'612.0
2018-Apr-23 16:00N 57°37' E 011°04'612.1
2018-Apr-23 15:30N 57°41' E 010°56'612.6
2018-Apr-23 15:00N 57°45' E 010°47'611.9
2018-Apr-23 14:30N 57°47' E 010°36'612.7
2018-Apr-23 14:00N 57°47' E 010°24'713.0
2018-Apr-23 13:29N 57°47' E 010°11'612.9
2018-Apr-23 13:00N 57°48' E 010°00'713.4
2018-Apr-23 12:30N 57°48' E 009°47'713.5
2018-Apr-23 12:00N 57°49' E 009°35'713.4
2018-Apr-23 11:30N 57°49' E 009°22'3212.6
2018-Apr-23 08:56N 57°51' E 008°22'512.2
2018-Apr-23 08:30N 57°52' E 008°12'712.4
2018-Apr-23 07:58N 57°52' E 007°59'612.7
2018-Apr-23 07:29N 57°52' E 007°48'612.5
2018-Apr-23 07:00N 57°53' E 007°37'612.4
2018-Apr-23 06:30N 57°53' E 007°25'612.2
2018-Apr-23 06:00N 57°54' E 007°13'611.9
2018-Apr-23 05:30N 57°55' E 007°02'511.1
2018-Apr-23 05:00N 57°57' E 006°53'611.7
2018-Apr-23 04:30N 57°60' E 006°43'611.2
2018-Apr-23 04:00N 58°02' E 006°33'611.0
2018-Apr-23 03:30N 58°05' E 006°25'611.0
2018-Apr-23 03:00N 58°09' E 006°17'611.3
2018-Apr-23 02:30N 58°12' E 006°08'510.7
2018-Apr-23 02:00N 58°15' E 006°00'5 9.8
2018-Apr-23 01:30N 58°18' E 005°52'4 8.9
2018-Apr-23 01:00N 58°21' E 005°46'5 9.2
2018-Apr-23 00:30N 58°24' E 005°40'5 9.2
2018-Apr-23 00:00N 58°28' E 005°35'5 9.8
2018-Apr-22 23:30N 58°33' E 005°31'5 9.8
2018-Apr-22 23:00N 58°37' E 005°27'5 9.7
2018-Apr-22 22:30N 58°41' E 005°23'5 9.3
2018-Apr-22 22:00N 58°45' E 005°18'4 8.9
2018-Apr-22 21:30N 58°49' E 005°13'4 8.5
2018-Apr-22 21:00N 58°53' E 005°09'4 8.7
2018-Apr-22 20:30N 58°56' E 005°04'4 8.6
2018-Apr-22 19:59N 58°60' E 004°60'4 8.9
2018-Apr-22 19:30N 59°04' E 004°55'4 8.6
2018-Apr-22 19:00N 59°07' E 004°51'19 8.0
2018-Apr-22 16:37N 59°26' E 004°44'1 8.2
2018-Apr-22 16:30N 59°27' E 004°44'4 8.4
2018-Apr-22 16:00N 59°31' E 004°45'5 9.9
2018-Apr-22 15:30N 59°36' E 004°46'610.7
2018-Apr-22 14:59N 59°41' E 004°49'510.5
2018-Apr-22 14:29N 59°47' E 004°51'510.2
2018-Apr-22 14:00N 59°51' E 004°52'510.5
2018-Apr-22 13:30N 59°57' E 004°53'610.5
2018-Apr-22 12:59N 60°02' E 004°54'510.0
2018-Apr-22 12:28N 60°07' E 004°56'510.9
2018-Apr-22 12:00N 60°10' E 005°05'4 8.9
2018-Apr-22 11:30N 60°13' E 005°10'510.5
2018-Apr-22 11:00N 60°19' E 005°12'5 9.6
2018-Apr-22 10:30N 60°23' E 005°11'5 9.3
2018-Apr-22 09:59N 60°28' E 005°15'511.5
2018-Apr-22 09:30N 60°33' E 005°19'612.1
2018-Apr-22 09:00N 60°36' E 005°29'5 8.9
2018-Apr-22 08:29N 60°40' E 005°35'2 4.6
2018-Apr-22 08:00N 60°42' E 005°33'0 0.0
2018-Apr-22 07:30N 60°42' E 005°33'0 0.0
2018-Apr-22 07:00N 60°42' E 005°33'0 0.0
2018-Apr-22 06:30N 60°42' E 005°33'0 0.0
2018-Apr-22 05:51N 60°42' E 005°33'0 0.0
2018-Apr-22 05:30N 60°42' E 005°33'0 0.0
2018-Apr-22 04:57N 60°42' E 005°33'0 0.0
2018-Apr-22 04:30N 60°42' E 005°33'0 0.0
2018-Apr-22 04:00N 60°42' E 005°33'0 0.0
2018-Apr-22 03:30N 60°42' E 005°33'0 0.0
2018-Apr-22 02:54N 60°42' E 005°33'0 0.0
2018-Apr-22 02:30N 60°42' E 005°33'0 0.0
2018-Apr-22 02:00N 60°42' E 005°33'0 0.0
2018-Apr-22 01:30N 60°42' E 005°33'0 0.0
2018-Apr-22 01:00N 60°42' E 005°33'0 0.0
2018-Apr-22 00:30N 60°42' E 005°33'0 0.0
2018-Apr-22 00:00N 60°42' E 005°33'0 0.0
2018-Apr-21 23:30N 60°42' E 005°33'0 0.0
2018-Apr-21 23:00N 60°42' E 005°33'0 0.0
2018-Apr-21 22:24N 60°42' E 005°33'0 0.0
2018-Apr-21 22:00N 60°42' E 005°33'0 0.0
2018-Apr-21 21:30N 60°42' E 005°33'0 0.0
2018-Apr-21 21:00N 60°42' E 005°33'0 0.0
2018-Apr-21 20:30N 60°42' E 005°33'0 0.0
2018-Apr-21 20:00N 60°42' E 005°33'0 0.0
2018-Apr-21 19:29N 60°42' E 005°33'0 0.0
2018-Apr-21 18:59N 60°42' E 005°33'0 0.0
2018-Apr-21 18:29N 60°42' E 005°33'0 0.0
2018-Apr-21 17:59N 60°42' E 005°33'0 0.0
2018-Apr-21 17:29N 60°42' E 005°33'0 0.0
2018-Apr-21 16:59N 60°42' E 005°33'0 0.0
2018-Apr-21 16:29N 60°42' E 005°33'0 0.0
2018-Apr-21 15:53N 60°42' E 005°33'0 0.6
2018-Apr-21 15:30N 60°42' E 005°34'4 7.6
2018-Apr-21 15:00N 60°38' E 005°35'612.1
2018-Apr-21 14:30N 60°35' E 005°25'510.4
2018-Apr-21 14:00N 60°33' E 005°15'712.7
2018-Apr-21 13:29N 60°37' E 005°04'612.0
2018-Apr-21 13:00N 60°39' E 004°53'612.0
2018-Apr-21 12:30N 60°44' E 004°45'4 8.3
2018-Apr-21 12:00N 60°41' E 004°39'713.2
2018-Apr-21 11:30N 60°35' E 004°39'713.0
2018-Apr-21 10:59N 60°28' E 004°38'613.3
2018-Apr-21 10:30N 60°22' E 004°39'713.3
2018-Apr-21 10:00N 60°15' E 004°39'713.6
2018-Apr-21 09:29N 60°08' E 004°40'612.5
2018-Apr-21 09:00N 60°02' E 004°40'612.4
2018-Apr-21 08:30N 59°56' E 004°40'612.7
2018-Apr-21 08:00N 59°49' E 004°40'713.1
2018-Apr-21 07:30N 59°43' E 004°39'4411.8
2018-Apr-21 03:47N 58°59' E 004°40'310.9
2018-Apr-21 03:29N 58°56' E 004°40'611.0
2018-Apr-21 02:54N 58°50' E 004°40'511.6
2018-Apr-21 02:29N 58°45' E 004°40'35411.6
2018-Apr-19 20:02N 52°56' E 002°46'112.6
2018-Apr-19 19:58N 52°56' E 002°45'2413.4
2018-Apr-19 18:13N 52°37' E 002°21'313.9
2018-Apr-19 18:00N 52°35' E 002°18'714.1
2018-Apr-19 17:30N 52°29' E 002°11'2214.6
2018-Apr-19 16:01N 52°12' E 001°50'014.8
2018-Apr-19 16:00N 52°11' E 001°50'714.5
2018-Apr-19 15:30N 52°06' E 001°43'714.5
2018-Apr-19 15:00N 51°60' E 001°36'612.4
2018-Apr-19 14:30N 51°56' E 001°28'611.6
2018-Apr-19 14:00N 51°56' E 001°19'5 9.2
2018-Apr-19 13:30N 51°60' E 001°15'4 8.2
2018-Apr-19 13:01N 52°02' E 001°09'0 1.0
2018-Apr-19 12:30N 52°02' E 001°09'0 0.0
2018-Apr-19 12:01N 52°02' E 001°09'0 0.0
2018-Apr-19 11:30N 52°02' E 001°09'0 0.0
2018-Apr-19 11:00N 52°02' E 001°09'0 0.0
2018-Apr-19 10:30N 52°02' E 001°09'0 0.0
2018-Apr-19 10:00N 52°02' E 001°09'0 0.0
2018-Apr-19 09:30N 52°02' E 001°09'0 0.0
2018-Apr-19 09:00N 52°02' E 001°09'0 0.0
2018-Apr-19 08:30N 52°02' E 001°09'0 0.0
2018-Apr-19 08:00N 52°02' E 001°09'0 0.0
2018-Apr-19 07:30N 52°02' E 001°09'0 0.0
2018-Apr-19 07:00N 52°02' E 001°09'0 0.0
2018-Apr-19 06:27N 52°02' E 001°09'0 0.0
2018-Apr-19 06:00N 52°02' E 001°09'0 0.0
2018-Apr-19 05:30N 52°02' E 001°09'0 0.0
2018-Apr-19 05:00N 52°02' E 001°09'0 0.0
2018-Apr-19 04:30N 52°02' E 001°09'0 0.0
2018-Apr-19 04:00N 52°02' E 001°09'0 0.0
2018-Apr-19 03:30N 52°02' E 001°09'0 0.0
2018-Apr-19 03:00N 52°02' E 001°09'0 0.0
2018-Apr-19 02:30N 52°02' E 001°09'0 0.0
2018-Apr-19 02:00N 52°02' E 001°09'0 0.0
2018-Apr-19 01:30N 52°02' E 001°09'0 0.0
2018-Apr-19 00:59N 52°02' E 001°09'0 0.0
2018-Apr-19 00:29N 52°02' E 001°09'0 0.0
2018-Apr-18 23:59N 52°02' E 001°09'0 0.0
2018-Apr-18 23:29N 52°02' E 001°09'0 0.0
2018-Apr-18 22:59N 52°02' E 001°09'0 0.0
2018-Apr-18 22:29N 52°02' E 001°09'0 0.0
2018-Apr-18 21:59N 52°02' E 001°09'0 0.0
2018-Apr-18 21:29N 52°02' E 001°09'0 0.0
2018-Apr-18 20:59N 52°02' E 001°09'0 0.0
2018-Apr-18 20:29N 52°02' E 001°09'0 0.0
2018-Apr-18 19:59N 52°02' E 001°09'0 0.0
2018-Apr-18 19:29N 52°02' E 001°09'0 0.0
2018-Apr-18 18:59N 52°02' E 001°09'0 0.0
2018-Apr-18 18:29N 52°02' E 001°09'0 0.0
2018-Apr-18 17:59N 52°02' E 001°09'0 0.0
2018-Apr-18 17:29N 52°02' E 001°09'0 0.0
2018-Apr-18 16:59N 52°02' E 001°09'0 0.0
2018-Apr-18 16:29N 52°02' E 001°09'0 0.0
2018-Apr-18 15:59N 52°02' E 001°09'0 0.0
2018-Apr-18 15:29N 52°02' E 001°09'0 0.0
2018-Apr-18 14:59N 52°02' E 001°09'0 0.0
2018-Apr-18 14:29N 52°02' E 001°09'0 0.0
2018-Apr-18 13:59N 52°02' E 001°09'0 0.0
2018-Apr-18 13:29N 52°02' E 001°09'0 0.0
2018-Apr-18 12:59N 52°02' E 001°09'0 0.0
2018-Apr-18 12:29N 52°02' E 001°09'0 0.0
2018-Apr-18 11:59N 52°02' E 001°09'0 0.0
2018-Apr-18 11:29N 52°02' E 001°09'0 0.0
2018-Apr-18 10:59N 52°02' E 001°09'0 0.0
2018-Apr-18 10:29N 52°02' E 001°09'0 0.0
2018-Apr-18 09:59N 52°02' E 001°09'0 0.0
2018-Apr-18 09:29N 52°02' E 001°09'0 0.0
2018-Apr-18 08:59N 52°02' E 001°09'0 0.0
2018-Apr-18 08:29N 52°02' E 001°09'0 0.0
2018-Apr-18 07:59N 52°02' E 001°09'0 0.0
2018-Apr-18 07:29N 52°02' E 001°09'0 0.0
2018-Apr-18 06:59N 52°02' E 001°09'0 0.0
2018-Apr-18 06:29N 52°02' E 001°09'0 0.0
2018-Apr-18 05:59N 52°02' E 001°09'0 0.0
2018-Apr-18 05:29N 52°02' E 001°09'0 0.0
2018-Apr-18 04:59N 52°02' E 001°09'0 0.0
2018-Apr-18 04:29N 52°02' E 001°09'0 0.0
2018-Apr-18 03:59N 52°02' E 001°09'0 0.0
2018-Apr-18 03:29N 52°02' E 001°09'0 0.0
2018-Apr-18 02:59N 52°02' E 001°09'0 0.0
2018-Apr-18 02:29N 52°02' E 001°09'0 0.0
2018-Apr-18 01:59N 52°02' E 001°09'0 0.0
2018-Apr-18 01:29N 52°02' E 001°09'0 0.0
2018-Apr-18 00:59N 52°02' E 001°09'0 0.0
2018-Apr-18 00:29N 52°02' E 001°09'0 0.0
2018-Apr-17 23:59N 52°02' E 001°09'0 0.0
2018-Apr-17 23:29N 52°02' E 001°09'0 0.0
2018-Apr-17 22:59N 52°02' E 001°09'0 0.0
2018-Apr-17 22:29N 52°02' E 001°09'0 0.0
2018-Apr-17 21:59N 52°02' E 001°09'0 0.0
2018-Apr-17 21:29N 52°02' E 001°09'0 0.0
2018-Apr-17 20:59N 52°02' E 001°09'0 0.0
2018-Apr-17 20:29N 52°02' E 001°09'0 0.0
2018-Apr-17 19:59N 52°02' E 001°09'0 0.0
2018-Apr-17 19:29N 52°02' E 001°09'0 0.0
2018-Apr-17 18:59N 52°02' E 001°09'0 0.0
2018-Apr-17 18:29N 52°02' E 001°09'0 0.0
2018-Apr-17 17:59N 52°02' E 001°09'0 0.0
2018-Apr-17 17:29N 52°02' E 001°09'0 0.0
2018-Apr-17 16:59N 52°02' E 001°09'0 0.0
2018-Apr-17 16:29N 52°02' E 001°09'0 0.0
2018-Apr-17 15:59N 52°02' E 001°09'0 0.0
2018-Apr-17 15:29N 52°02' E 001°09'0 0.0
2018-Apr-17 14:59N 52°02' E 001°09'0 0.0
2018-Apr-17 14:29N 52°02' E 001°09'0 0.0
2018-Apr-17 13:59N 52°02' E 001°09'0 0.0
2018-Apr-17 13:28N 52°02' E 001°09'0 0.0
2018-Apr-17 12:58N 52°02' E 001°09'0 0.0
2018-Apr-17 12:28N 52°02' E 001°09'0 0.0
2018-Apr-17 11:58N 52°02' E 001°09'0 0.0
2018-Apr-17 11:28N 52°02' E 001°09'0 0.0
2018-Apr-17 10:58N 52°02' E 001°09'0 0.0
2018-Apr-17 10:28N 52°02' E 001°09'0 0.0
2018-Apr-17 09:58N 52°02' E 001°09'0 0.0
2018-Apr-17 09:28N 52°02' E 001°09'0 0.0
2018-Apr-17 08:58N 52°02' E 001°09'0 0.0
2018-Apr-17 08:28N 52°02' E 001°09'0 0.0
2018-Apr-17 07:58N 52°02' E 001°09'0 0.0
2018-Apr-17 07:28N 52°02' E 001°09'0 0.0
2018-Apr-17 06:58N 52°02' E 001°09'0 0.0
2018-Apr-17 06:28N 52°02' E 001°09'0 0.0
2018-Apr-17 05:58N 52°02' E 001°09'0 0.0
2018-Apr-17 05:28N 52°02' E 001°09'0 0.0
2018-Apr-17 04:58N 52°02' E 001°09'0 0.0
2018-Apr-17 04:28N 52°02' E 001°09'0 0.0
2018-Apr-17 03:58N 52°02' E 001°09'0 0.0
2018-Apr-17 03:28N 52°02' E 001°09'0 0.0
2018-Apr-17 02:58N 52°02' E 001°09'0 0.0
2018-Apr-17 02:28N 52°02' E 001°09'0 0.0
2018-Apr-17 01:58N 52°02' E 001°09'0 0.0
2018-Apr-17 01:28N 52°02' E 001°09'0 0.0
2018-Apr-17 00:58N 52°02' E 001°09'0 0.0
2018-Apr-17 00:28N 52°02' E 001°09'0 0.0
2018-Apr-16 23:58N 52°02' E 001°09'0 0.0
2018-Apr-16 23:28N 52°02' E 001°09'0 0.0
2018-Apr-16 22:58N 52°02' E 001°09'0 0.0
2018-Apr-16 22:28N 52°02' E 001°09'0 0.0
2018-Apr-16 21:58N 52°02' E 001°09'0 0.0
2018-Apr-16 21:28N 52°02' E 001°09'0 0.0
2018-Apr-16 20:58N 52°02' E 001°09'0 0.0
2018-Apr-16 20:28N 52°02' E 001°09'0 0.0
2018-Apr-16 19:58N 52°02' E 001°09'0 0.0
2018-Apr-16 19:30N 52°02' E 001°09'0 0.2
2018-Apr-16 18:58N 52°02' E 001°10'0 0.0
2018-Apr-16 18:28N 52°02' E 001°10'0 0.0
2018-Apr-16 17:58N 52°02' E 001°10'0 0.0
2018-Apr-16 17:28N 52°02' E 001°10'0 0.0
2018-Apr-16 16:58N 52°02' E 001°10'0 0.0
2018-Apr-16 16:28N 52°02' E 001°10'0 0.0
2018-Apr-16 15:58N 52°02' E 001°10'0 0.0
2018-Apr-16 15:28N 52°02' E 001°10'0 0.0
2018-Apr-16 14:58N 52°02' E 001°10'0 0.0
2018-Apr-16 14:28N 52°02' E 001°10'0 0.0
2018-Apr-16 13:58N 52°02' E 001°10'0 0.0
2018-Apr-16 13:28N 52°02' E 001°10'0 0.0
2018-Apr-16 12:58N 52°02' E 001°10'0 0.0
2018-Apr-16 12:28N 52°02' E 001°10'0 0.0
2018-Apr-16 11:58N 52°02' E 001°10'0 0.0
2018-Apr-16 11:28N 52°02' E 001°10'0 0.0
2018-Apr-16 10:58N 52°02' E 001°10'0 0.0
2018-Apr-16 10:28N 52°02' E 001°10'0 0.0
2018-Apr-16 09:58N 52°02' E 001°10'0 0.2
2018-Apr-16 09:31N 52°02' E 001°09'2 4.4
2018-Apr-16 09:00N 52°01' E 001°12'4 7.5
2018-Apr-16 08:31N 51°58' E 001°17'4 8.1
2018-Apr-16 08:01N 51°56' E 001°21'510.6
2018-Apr-16 07:30N 51°57' E 001°30'3 6.2
2018-Apr-16 07:00N 51°58' E 001°34'3 6.8
2018-Apr-16 06:31N 52°01' E 001°37'3 6.9
2018-Apr-16 06:01N 52°03' E 001°42'3 6.6
2018-Apr-16 05:31N 52°05' E 001°46'3 6.6
2018-Apr-16 05:01N 52°07' E 001°51'3 6.5
2018-Apr-16 04:31N 52°08' E 001°55'4 8.6
2018-Apr-16 04:01N 52°11' E 002°01'8410.2
2018-Apr-15 19:45N 52°57' E 003°57'311.1
2018-Apr-15 19:29N 52°59' E 004°01'1010.9
2018-Apr-15 18:32N 53°06' E 004°14'010.6
2018-Apr-15 18:30N 53°06' E 004°14'510.4
2018-Apr-15 17:59N 53°10' E 004°21'5 9.7
2018-Apr-15 17:31N 53°13' E 004°25'5 9.6
2018-Apr-15 17:00N 53°18' E 004°29'17410.4
2018-Apr-15 00:21N 55°50' E 006°53'  
Track history (hours):
 
Tides and Currents Weather Stations Pressure Air Temp Water Temp Dewpoint Dewpoint Depression Visibility Wind Speed Wind Dir Waves Ship Positions

Antonia B

Last reported at 2018-Apr-24 12:57 UTC. Time now 2018-Apr-24 16:42 UTC.
Position N 54°51' E 015°12'.

Length 97 m; draft 6.9 m.

Type: Cargo ship. MMSI: 305201000.

Date/timePositionNaut miles runAvg speedWind from/ knotsBaromVisibWave heightAir tempDewpointWater temp
2018-Apr-24 12:57N 54°51' E 015°12'512.2
2018-Apr-24 12:30N 54°52' E 015°02'612.1
2018-Apr-24 12:01N 54°53' E 014°52'611.9
2018-Apr-24 11:30N 54°53' E 014°41'611.8
2018-Apr-24 11:00N 54°54' E 014°31'612.0
2018-Apr-24 10:30N 54°55' E 014°21'4611.9
2018-Apr-24 06:41N 55°10' E 013°06'212.1
2018-Apr-24 06:30N 55°11' E 013°03'611.8
2018-Apr-24 06:00N 55°14' E 012°54'611.9
2018-Apr-24 05:30N 55°17' E 012°44'5 9.6
2018-Apr-24 05:00N 55°20' E 012°39'611.8
2018-Apr-24 04:30N 55°26' E 012°40'611.8
2018-Apr-24 04:00N 55°32' E 012°42'611.8
2018-Apr-24 03:30N 55°38' E 012°42'612.2
2018-Apr-24 03:00N 55°44' E 012°41'611.5
2018-Apr-24 02:30N 55°50' E 012°42'612.1
2018-Apr-24 02:00N 55°55' E 012°38'611.7
2018-Apr-24 01:30N 56°01' E 012°38'611.7
2018-Apr-24 01:00N 56°06' E 012°32'713.4
2018-Apr-24 00:28N 56°10' E 012°22'6611.5
2018-Apr-23 18:45N 57°11' E 011°35'311.1
2018-Apr-23 18:30N 57°13' E 011°34'611.3
2018-Apr-23 18:00N 57°19' E 011°30'611.7
2018-Apr-23 17:30N 57°24' E 011°26'611.3
2018-Apr-23 17:00N 57°29' E 011°21'611.6
2018-Apr-23 16:30N 57°33' E 011°13'612.0
2018-Apr-23 16:00N 57°37' E 011°04'612.1
2018-Apr-23 15:30N 57°41' E 010°56'612.6
2018-Apr-23 15:00N 57°45' E 010°47'611.9
2018-Apr-23 14:30N 57°47' E 010°36'612.7
2018-Apr-23 14:00N 57°47' E 010°24'713.0
2018-Apr-23 13:29N 57°47' E 010°11'612.9
2018-Apr-23 13:00N 57°48' E 010°00'713.4
2018-Apr-23 12:30N 57°48' E 009°47'713.5
2018-Apr-23 12:00N 57°49' E 009°35'713.4
2018-Apr-23 11:30N 57°49' E 009°22'3212.6
2018-Apr-23 08:56N 57°51' E 008°22'512.2
2018-Apr-23 08:30N 57°52' E 008°12'712.4
2018-Apr-23 07:58N 57°52' E 007°59'612.7
2018-Apr-23 07:29N 57°52' E 007°48'612.5
2018-Apr-23 07:00N 57°53' E 007°37'612.4
2018-Apr-23 06:30N 57°53' E 007°25'612.2
2018-Apr-23 06:00N 57°54' E 007°13'611.9
2018-Apr-23 05:30N 57°55' E 007°02'511.1
2018-Apr-23 05:00N 57°57' E 006°53'611.7
2018-Apr-23 04:30N 57°60' E 006°43'611.2
2018-Apr-23 04:00N 58°02' E 006°33'611.0
2018-Apr-23 03:30N 58°05' E 006°25'611.0
2018-Apr-23 03:00N 58°09' E 006°17'611.3
2018-Apr-23 02:30N 58°12' E 006°08'510.7
2018-Apr-23 02:00N 58°15' E 006°00'5 9.8
2018-Apr-23 01:30N 58°18' E 005°52'4 8.9
2018-Apr-23 01:00N 58°21' E 005°46'5 9.2
2018-Apr-23 00:30N 58°24' E 005°40'5 9.2
2018-Apr-23 00:00N 58°28' E 005°35'5 9.8
2018-Apr-22 23:30N 58°33' E 005°31'5 9.8
2018-Apr-22 23:00N 58°37' E 005°27'5 9.7
2018-Apr-22 22:30N 58°41' E 005°23'5 9.3
2018-Apr-22 22:00N 58°45' E 005°18'4 8.9
2018-Apr-22 21:30N 58°49' E 005°13'4 8.5
2018-Apr-22 21:00N 58°53' E 005°09'4 8.7
2018-Apr-22 20:30N 58°56' E 005°04'4 8.6
2018-Apr-22 19:59N 58°60' E 004°60'4 8.9
2018-Apr-22 19:30N 59°04' E 004°55'4 8.6
2018-Apr-22 19:00N 59°07' E 004°51'19 8.0
2018-Apr-22 16:37N 59°26' E 004°44'1 8.2
2018-Apr-22 16:30N 59°27' E 004°44'4 8.4
2018-Apr-22 16:00N 59°31' E 004°45'5 9.9
2018-Apr-22 15:30N 59°36' E 004°46'610.7
2018-Apr-22 14:59N 59°41' E 004°49'510.5
2018-Apr-22 14:29N 59°47' E 004°51'510.2
2018-Apr-22 14:00N 59°51' E 004°52'510.5
2018-Apr-22 13:30N 59°57' E 004°53'610.5
2018-Apr-22 12:59N 60°02' E 004°54'510.0
2018-Apr-22 12:28N 60°07' E 004°56'510.9
2018-Apr-22 12:00N 60°10' E 005°05'4 8.9
2018-Apr-22 11:30N 60°13' E 005°10'510.5
2018-Apr-22 11:00N 60°19' E 005°12'5 9.6
2018-Apr-22 10:30N 60°23' E 005°11'5 9.3
2018-Apr-22 09:59N 60°28' E 005°15'511.5
2018-Apr-22 09:30N 60°33' E 005°19'612.1
2018-Apr-22 09:00N 60°36' E 005°29'5 8.9
2018-Apr-22 08:29N 60°40' E 005°35'2 4.6
2018-Apr-22 08:00N 60°42' E 005°33'0 0.0
2018-Apr-22 07:30N 60°42' E 005°33'0 0.0
2018-Apr-22 07:00N 60°42' E 005°33'0 0.0
2018-Apr-22 06:30N 60°42' E 005°33'0 0.0
2018-Apr-22 05:51N 60°42' E 005°33'0 0.0
2018-Apr-22 05:30N 60°42' E 005°33'0 0.0
2018-Apr-22 04:57N 60°42' E 005°33'0 0.0
2018-Apr-22 04:30N 60°42' E 005°33'0 0.0
2018-Apr-22 04:00N 60°42' E 005°33'0 0.0
2018-Apr-22 03:30N 60°42' E 005°33'0 0.0
2018-Apr-22 02:54N 60°42' E 005°33'0 0.0
2018-Apr-22 02:30N 60°42' E 005°33'0 0.0
2018-Apr-22 02:00N 60°42' E 005°33'0 0.0
2018-Apr-22 01:30N 60°42' E 005°33'0 0.0
2018-Apr-22 01:00N 60°42' E 005°33'0 0.0
2018-Apr-22 00:30N 60°42' E 005°33'0 0.0
2018-Apr-22 00:00N 60°42' E 005°33'0 0.0
2018-Apr-21 23:30N 60°42' E 005°33'0 0.0
2018-Apr-21 23:00N 60°42' E 005°33'0 0.0
2018-Apr-21 22:24N 60°42' E 005°33'0 0.0
2018-Apr-21 22:00N 60°42' E 005°33'0 0.0
2018-Apr-21 21:30N 60°42' E 005°33'0 0.0
2018-Apr-21 21:00N 60°42' E 005°33'0 0.0
2018-Apr-21 20:30N 60°42' E 005°33'0 0.0
2018-Apr-21 20:00N 60°42' E 005°33'0 0.0
2018-Apr-21 19:29N 60°42' E 005°33'0 0.0
2018-Apr-21 18:59N 60°42' E 005°33'0 0.0
2018-Apr-21 18:29N 60°42' E 005°33'0 0.0
2018-Apr-21 17:59N 60°42' E 005°33'0 0.0
2018-Apr-21 17:29N 60°42' E 005°33'0 0.0
2018-Apr-21 16:59N 60°42' E 005°33'0 0.0
2018-Apr-21 16:29N 60°42' E 005°33'0 0.0
2018-Apr-21 15:53N 60°42' E 005°33'0 0.6
2018-Apr-21 15:30N 60°42' E 005°34'4 7.6
2018-Apr-21 15:00N 60°38' E 005°35'612.1
2018-Apr-21 14:30N 60°35' E 005°25'510.4
2018-Apr-21 14:00N 60°33' E 005°15'712.7
2018-Apr-21 13:29N 60°37' E 005°04'612.0
2018-Apr-21 13:00N 60°39' E 004°53'612.0
2018-Apr-21 12:30N 60°44' E 004°45'4 8.3
2018-Apr-21 12:00N 60°41' E 004°39'713.2
2018-Apr-21 11:30N 60°35' E 004°39'713.0
2018-Apr-21 10:59N 60°28' E 004°38'613.3
2018-Apr-21 10:30N 60°22' E 004°39'713.3
2018-Apr-21 10:00N 60°15' E 004°39'713.6
2018-Apr-21 09:29N 60°08' E 004°40'612.5
2018-Apr-21 09:00N 60°02' E 004°40'612.4
2018-Apr-21 08:30N 59°56' E 004°40'612.7
2018-Apr-21 08:00N 59°49' E 004°40'713.1
2018-Apr-21 07:30N 59°43' E 004°39'4411.8
2018-Apr-21 03:47N 58°59' E 004°40'310.9
2018-Apr-21 03:29N 58°56' E 004°40'611.0
2018-Apr-21 02:54N 58°50' E 004°40'511.6
2018-Apr-21 02:29N 58°45' E 004°40'35411.6
2018-Apr-19 20:02N 52°56' E 002°46'112.6
2018-Apr-19 19:58N 52°56' E 002°45'2413.4
2018-Apr-19 18:13N 52°37' E 002°21'313.9
2018-Apr-19 18:00N 52°35' E 002°18'714.1
2018-Apr-19 17:30N 52°29' E 002°11'2214.6
2018-Apr-19 16:01N 52°12' E 001°50'014.8
2018-Apr-19 16:00N 52°11' E 001°50'714.5
2018-Apr-19 15:30N 52°06' E 001°43'714.5
2018-Apr-19 15:00N 51°60' E 001°36'612.4
2018-Apr-19 14:30N 51°56' E 001°28'611.6
2018-Apr-19 14:00N 51°56' E 001°19'5 9.2
2018-Apr-19 13:30N 51°60' E 001°15'4 8.2
2018-Apr-19 13:01N 52°02' E 001°09'0 1.0
2018-Apr-19 12:30N 52°02' E 001°09'0 0.0
2018-Apr-19 12:01N 52°02' E 001°09'0 0.0
2018-Apr-19 11:30N 52°02' E 001°09'0 0.0
2018-Apr-19 11:00N 52°02' E 001°09'0 0.0
2018-Apr-19 10:30N 52°02' E 001°09'0 0.0
2018-Apr-19 10:00N 52°02' E 001°09'0 0.0
2018-Apr-19 09:30N 52°02' E 001°09'0 0.0
2018-Apr-19 09:00N 52°02' E 001°09'0 0.0
2018-Apr-19 08:30N 52°02' E 001°09'0 0.0
2018-Apr-19 08:00N 52°02' E 001°09'0 0.0
2018-Apr-19 07:30N 52°02' E 001°09'0 0.0
2018-Apr-19 07:00N 52°02' E 001°09'0 0.0
2018-Apr-19 06:27N 52°02' E 001°09'0 0.0
2018-Apr-19 06:00N 52°02' E 001°09'0 0.0
2018-Apr-19 05:30N 52°02' E 001°09'0 0.0
2018-Apr-19 05:00N 52°02' E 001°09'0 0.0
2018-Apr-19 04:30N 52°02' E 001°09'0 0.0
2018-Apr-19 04:00N 52°02' E 001°09'0 0.0
2018-Apr-19 03:30N 52°02' E 001°09'0 0.0
2018-Apr-19 03:00N 52°02' E 001°09'0 0.0
2018-Apr-19 02:30N 52°02' E 001°09'0 0.0
2018-Apr-19 02:00N 52°02' E 001°09'0 0.0
2018-Apr-19 01:30N 52°02' E 001°09'0 0.0
2018-Apr-19 00:59N 52°02' E 001°09'0 0.0
2018-Apr-19 00:29N 52°02' E 001°09'0 0.0
2018-Apr-18 23:59N 52°02' E 001°09'0 0.0
2018-Apr-18 23:29N 52°02' E 001°09'0 0.0
2018-Apr-18 22:59N 52°02' E 001°09'0 0.0
2018-Apr-18 22:29N 52°02' E 001°09'0 0.0
2018-Apr-18 21:59N 52°02' E 001°09'0 0.0
2018-Apr-18 21:29N 52°02' E 001°09'0 0.0
2018-Apr-18 20:59N 52°02' E 001°09'0 0.0
2018-Apr-18 20:29N 52°02' E 001°09'0 0.0
2018-Apr-18 19:59N 52°02' E 001°09'0 0.0
2018-Apr-18 19:29N 52°02' E 001°09'0 0.0
2018-Apr-18 18:59N 52°02' E 001°09'0 0.0
2018-Apr-18 18:29N 52°02' E 001°09'0 0.0
2018-Apr-18 17:59N 52°02' E 001°09'0 0.0
2018-Apr-18 17:29N 52°02' E 001°09'0 0.0
2018-Apr-18 16:59N 52°02' E 001°09'0 0.0
2018-Apr-18 16:29N 52°02' E 001°09'0 0.0
2018-Apr-18 15:59N 52°02' E 001°09'0 0.0
2018-Apr-18 15:29N 52°02' E 001°09'0 0.0
2018-Apr-18 14:59N 52°02' E 001°09'0 0.0
2018-Apr-18 14:29N 52°02' E 001°09'0 0.0
2018-Apr-18 13:59N 52°02' E 001°09'0 0.0
2018-Apr-18 13:29N 52°02' E 001°09'0 0.0
2018-Apr-18 12:59N 52°02' E 001°09'0 0.0
2018-Apr-18 12:29N 52°02' E 001°09'0 0.0
2018-Apr-18 11:59N 52°02' E 001°09'0 0.0
2018-Apr-18 11:29N 52°02' E 001°09'0 0.0
2018-Apr-18 10:59N 52°02' E 001°09'0 0.0
2018-Apr-18 10:29N 52°02' E 001°09'0 0.0
2018-Apr-18 09:59N 52°02' E 001°09'0 0.0
2018-Apr-18 09:29N 52°02' E 001°09'0 0.0
2018-Apr-18 08:59N 52°02' E 001°09'0 0.0
2018-Apr-18 08:29N 52°02' E 001°09'0 0.0
2018-Apr-18 07:59N 52°02' E 001°09'0 0.0
2018-Apr-18 07:29N 52°02' E 001°09'0 0.0
2018-Apr-18 06:59N 52°02' E 001°09'0 0.0
2018-Apr-18 06:29N 52°02' E 001°09'0 0.0
2018-Apr-18 05:59N 52°02' E 001°09'0 0.0
2018-Apr-18 05:29N 52°02' E 001°09'0 0.0
2018-Apr-18 04:59N 52°02' E 001°09'0 0.0
2018-Apr-18 04:29N 52°02' E 001°09'0 0.0
2018-Apr-18 03:59N 52°02' E 001°09'0 0.0
2018-Apr-18 03:29N 52°02' E 001°09'0 0.0
2018-Apr-18 02:59N 52°02' E 001°09'0 0.0
2018-Apr-18 02:29N 52°02' E 001°09'0 0.0
2018-Apr-18 01:59N 52°02' E 001°09'0 0.0
2018-Apr-18 01:29N 52°02' E 001°09'0 0.0
2018-Apr-18 00:59N 52°02' E 001°09'0 0.0
2018-Apr-18 00:29N 52°02' E 001°09'0 0.0
2018-Apr-17 23:59N 52°02' E 001°09'0 0.0
2018-Apr-17 23:29N 52°02' E 001°09'0 0.0
2018-Apr-17 22:59N 52°02' E 001°09'0 0.0
2018-Apr-17 22:29N 52°02' E 001°09'0 0.0
2018-Apr-17 21:59N 52°02' E 001°09'0 0.0
2018-Apr-17 21:29N 52°02' E 001°09'0 0.0
2018-Apr-17 20:59N 52°02' E 001°09'0 0.0
2018-Apr-17 20:29N 52°02' E 001°09'0 0.0
2018-Apr-17 19:59N 52°02' E 001°09'0 0.0
2018-Apr-17 19:29N 52°02' E 001°09'0 0.0
2018-Apr-17 18:59N 52°02' E 001°09'0 0.0
2018-Apr-17 18:29N 52°02' E 001°09'0 0.0
2018-Apr-17 17:59N 52°02' E 001°09'0 0.0
2018-Apr-17 17:29N 52°02' E 001°09'0 0.0
2018-Apr-17 16:59N 52°02' E 001°09'0 0.0
2018-Apr-17 16:29N 52°02' E 001°09'0 0.0
2018-Apr-17 15:59N 52°02' E 001°09'0 0.0
2018-Apr-17 15:29N 52°02' E 001°09'0 0.0
2018-Apr-17 14:59N 52°02' E 001°09'0 0.0
2018-Apr-17 14:29N 52°02' E 001°09'0 0.0
2018-Apr-17 13:59N 52°02' E 001°09'0 0.0
2018-Apr-17 13:28N 52°02' E 001°09'0 0.0
2018-Apr-17 12:58N 52°02' E 001°09'0 0.0
2018-Apr-17 12:28N 52°02' E 001°09'0 0.0
2018-Apr-17 11:58N 52°02' E 001°09'0 0.0
2018-Apr-17 11:28N 52°02' E 001°09'0 0.0
2018-Apr-17 10:58N 52°02' E 001°09'0 0.0
2018-Apr-17 10:28N 52°02' E 001°09'0 0.0
2018-Apr-17 09:58N 52°02' E 001°09'0 0.0
2018-Apr-17 09:28N 52°02' E 001°09'0 0.0
2018-Apr-17 08:58N 52°02' E 001°09'0 0.0
2018-Apr-17 08:28N 52°02' E 001°09'0 0.0
2018-Apr-17 07:58N 52°02' E 001°09'0 0.0
2018-Apr-17 07:28N 52°02' E 001°09'0 0.0
2018-Apr-17 06:58N 52°02' E 001°09'0 0.0
2018-Apr-17 06:28N 52°02' E 001°09'0 0.0
2018-Apr-17 05:58N 52°02' E 001°09'0 0.0
2018-Apr-17 05:28N 52°02' E 001°09'0 0.0
2018-Apr-17 04:58N 52°02' E 001°09'0 0.0
2018-Apr-17 04:28N 52°02' E 001°09'0 0.0
2018-Apr-17 03:58N 52°02' E 001°09'0 0.0
2018-Apr-17 03:28N 52°02' E 001°09'0 0.0
2018-Apr-17 02:58N 52°02' E 001°09'0 0.0
2018-Apr-17 02:28N 52°02' E 001°09'0 0.0
2018-Apr-17 01:58N 52°02' E 001°09'0 0.0
2018-Apr-17 01:28N 52°02' E 001°09'0 0.0
2018-Apr-17 00:58N 52°02' E 001°09'0 0.0
2018-Apr-17 00:28N 52°02' E 001°09'0 0.0
2018-Apr-16 23:58N 52°02' E 001°09'0 0.0
2018-Apr-16 23:28N 52°02' E 001°09'0 0.0
2018-Apr-16 22:58N 52°02' E 001°09'0 0.0
2018-Apr-16 22:28N 52°02' E 001°09'0 0.0
2018-Apr-16 21:58N 52°02' E 001°09'0 0.0
2018-Apr-16 21:28N 52°02' E 001°09'0 0.0
2018-Apr-16 20:58N 52°02' E 001°09'0 0.0
2018-Apr-16 20:28N 52°02' E 001°09'0 0.0
2018-Apr-16 19:58N 52°02' E 001°09'0 0.0
2018-Apr-16 19:30N 52°02' E 001°09'0 0.2
2018-Apr-16 18:58N 52°02' E 001°10'0 0.0
2018-Apr-16 18:28N 52°02' E 001°10'0 0.0
2018-Apr-16 17:58N 52°02' E 001°10'0 0.0
2018-Apr-16 17:28N 52°02' E 001°10'0 0.0
2018-Apr-16 16:58N 52°02' E 001°10'0 0.0
2018-Apr-16 16:28N 52°02' E 001°10'0 0.0
2018-Apr-16 15:58N 52°02' E 001°10'0 0.0
2018-Apr-16 15:28N 52°02' E 001°10'0 0.0
2018-Apr-16 14:58N 52°02' E 001°10'0 0.0
2018-Apr-16 14:28N 52°02' E 001°10'0 0.0
2018-Apr-16 13:58N 52°02' E 001°10'0 0.0
2018-Apr-16 13:28N 52°02' E 001°10'0 0.0
2018-Apr-16 12:58N 52°02' E 001°10'0 0.0
2018-Apr-16 12:28N 52°02' E 001°10'0 0.0
2018-Apr-16 11:58N 52°02' E 001°10'0 0.0
2018-Apr-16 11:28N 52°02' E 001°10'0 0.0
2018-Apr-16 10:58N 52°02' E 001°10'0 0.0
2018-Apr-16 10:28N 52°02' E 001°10'0 0.0
2018-Apr-16 09:58N 52°02' E 001°10'0 0.2
2018-Apr-16 09:31N 52°02' E 001°09'2 4.4
2018-Apr-16 09:00N 52°01' E 001°12'4 7.5
2018-Apr-16 08:31N 51°58' E 001°17'4 8.1
2018-Apr-16 08:01N 51°56' E 001°21'510.6
2018-Apr-16 07:30N 51°57' E 001°30'3 6.2
2018-Apr-16 07:00N 51°58' E 001°34'3 6.8
2018-Apr-16 06:31N 52°01' E 001°37'3 6.9
2018-Apr-16 06:01N 52°03' E 001°42'3 6.6
2018-Apr-16 05:31N 52°05' E 001°46'3 6.6
2018-Apr-16 05:01N 52°07' E 001°51'3 6.5
2018-Apr-16 04:31N 52°08' E 001°55'4 8.6
2018-Apr-16 04:01N 52°11' E 002°01'8410.2
2018-Apr-15 19:45N 52°57' E 003°57'311.1
2018-Apr-15 19:29N 52°59' E 004°01'1010.9
2018-Apr-15 18:32N 53°06' E 004°14'010.6
2018-Apr-15 18:30N 53°06' E 004°14'510.4
2018-Apr-15 17:59N 53°10' E 004°21'5 9.7
2018-Apr-15 17:31N 53°13' E 004°25'5 9.6
2018-Apr-15 17:00N 53°18' E 004°29'17410.4
2018-Apr-15 00:21N 55°50' E 006°53'  

Dump ship's entire track history